Time;durP1;ratioP1;P1;durP2;ratioP2;P2;SDS_P1;SDS_P2;PMS_P1;PMS_P2;Temp;Humidity;BMP_temperature;BMP_pressure;BME280_temperature;BME280_humidity;BME280_pressure;Samples;Min_cycle;Max_cycle;Signal;HPM_P1;HPM_P2
2021/11/28 00:01:32;;;;;;;;;;;;;;;10.49;82.81;98536.09;4950243;29;20417;-77
2021/11/28 00:04:16;;;;;;;48.75;26.58;;;;;;;10.44;82.86;98531.78;4936915;28;19914;-78
2021/11/28 00:07:08;;;;;;;148.38;69.65;;;;;;;10.47;83.85;98527.53;4938223;29;20039;-78
2021/11/28 00:12:49;;;;;;;273.35;123.82;;;;;;;10.48;83.40;98523.66;4947460;29;20047;-79
2021/11/28 00:15:34;;;;;;;133.18;70.30;;;;;;;10.46;82.85;98517.84;4955208;28;20038;-77
2021/11/28 00:18:19;;;;;;;73.47;38.67;;;;;;;10.47;82.79;98516.66;4939300;28;20039;-76
2021/11/28 00:21:05;;;;;;;95.32;44.30;;;;;;;10.46;82.08;98513.19;4958006;28;20066;-79
2021/11/28 00:23:49;;;;;;;111.93;50.97;;;;;;;10.44;81.79;98515.47;4958587;28;20043;-75
2021/11/28 00:26:34;;;;;;;;;;;;;;;10.48;81.97;98504.66;4954539;28;20530;-79
2021/11/28 00:29:19;;;;;;;380.25;178.52;;;;;;;10.46;83.65;98496.09;4936747;29;19944;-77
2021/11/28 00:32:04;;;;;;;369.90;193.48;;;;;;;10.48;84.59;98489.13;4943229;29;20047;-76
2021/11/28 00:34:49;;;;;;;364.45;197.32;;;;;;;10.48;85.15;98491.84;4955842;28;20046;-75
2021/11/28 00:37:34;;;;;;;519.72;283.92;;;;;;;10.53;86.48;98501.59;4955338;28;20051;-77
2021/11/28 00:40:19;;;;;;;354.90;189.13;;;;;;;10.52;86.66;98494.59;4954281;28;20510;-77
2021/11/28 00:43:04;;;;;;;546.25;309.10;;;;;;;10.53;87.69;98488.81;4936895;29;20494;-75
2021/11/28 00:45:49;;;;;;;;;;;;;;;10.57;87.98;98476.03;4946285;29;20414;-80
2021/11/28 00:48:37;;;;;;;544.35;302.83;;;;;;;10.56;88.41;98476.44;4954479;29;19918;-78
2021/11/28 00:51:33;;;;;;;553.80;312.17;;;;;;;10.53;88.45;98461.63;4956094;28;20055;-75
2021/11/28 00:54:18;;;;;;;;;;;;;;;10.55;88.07;98459.34;4941388;29;20445;-77
2021/11/28 00:57:03;;;;;;;429.90;219.37;;;;;;;10.51;87.96;98461.22;4950627;29;20389;-75
2021/11/28 00:59:48;;;;;;;309.27;136.75;;;;;;;10.48;86.59;98455.72;4955498;29;20652;-78
2021/11/28 01:02:33;;;;;;;;;;;;;;;10.51;86.01;98463.94;4946961;29;20040;-77
2021/11/28 01:05:18;;;;;;;508.27;277.30;;;;;;;10.50;87.15;98464.31;4967760;28;20290;-78
2021/11/28 01:08:03;;;;;;;417.48;233.38;;;;;;;10.52;87.79;98481.00;4946235;29;20043;-75
2021/11/28 01:10:48;;;;;;;418.05;236.13;;;;;;;10.53;88.22;98486.09;4954788;29;20047;-77
2021/11/28 01:13:33;;;;;;;316.15;150.23;;;;;;;10.49;87.27;98476.31;4937994;29;20418;-78
2021/11/28 01:16:20;;;;;;;325.25;146.15;;;;;;;10.48;86.01;98480.19;4937110;29;20055;-77
2021/11/28 01:19:05;;;;;;;279.30;127.10;;;;;;;10.42;85.40;98476.22;4942246;29;20039;-77
2021/11/28 01:21:53;;;;;;;;;;;;;;;10.48;85.56;98475.53;4957144;28;20043;-78
2021/11/28 01:24:39;;;;;;;364.45;177.82;;;;;;;10.46;85.35;98471.63;4950434;28;19914;-77
2021/11/28 01:27:24;;;;;;;471.10;262.33;;;;;;;10.48;86.41;98469.31;4956550;28;20658;-76
2021/11/28 01:30:10;;;;;;;288.10;139.10;;;;;;;10.48;86.12;98474.75;4938001;29;20055;-76
2021/11/28 01:32:55;;;;;;;296.58;139.27;;;;;;;10.46;86.01;98482.50;4959076;28;20036;-77
2021/11/28 01:35:40;;;;;;;372.52;187.15;;;;;;;10.43;85.23;98462.28;4938287;29;20503;-76
2021/11/28 01:38:25;;;;;;;514.63;288.13;;;;;;;10.48;86.76;98459.22;4941583;28;20039;-76
2021/11/28 01:41:11;;;;;;;540.85;307.55;;;;;;;10.50;87.14;98461.59;4939559;29;20406;-76
2021/11/28 01:43:57;;;;;;;426.95;247.52;;;;;;;10.51;88.28;98463.94;4950400;29;20039;-80
2021/11/28 01:46:43;;;;;;;244.05;122.05;;;;;;;10.50;88.41;98461.59;4960180;28;20043;-78
2021/11/28 01:49:28;;;;;;;547.03;306.95;;;;;;;10.49;88.25;98462.75;4959396;28;20035;-78
2021/11/28 01:52:13;;;;;;;544.30;308.23;;;;;;;10.50;88.86;98469.75;4956935;28;20055;-76
2021/11/28 01:54:58;;;;;;;564.08;318.45;;;;;;;10.51;89.60;98469.38;4960365;28;20498;-76
2021/11/28 01:57:43;;;;;;;578.60;332.15;;;;;;;10.51;89.81;98460.44;4958499;28;20043;-76
2021/11/28 02:00:35;;;;;;;424.17;243.68;;;;;;;10.51;89.32;98457.72;4938248;28;20044;-76
2021/11/28 02:03:21;;;;;;;318.00;160.15;;;;;;;10.47;88.63;98451.44;4941114;29;20035;-77
2021/11/28 02:06:08;;;;;;;178.85;90.35;;;;;;;10.44;86.86;98452.97;4939165;29;20040;-77
2021/11/28 02:08:54;;;;;;;499.00;280.85;;;;;;;10.47;87.16;98457.66;4937923;29;20044;-76
2021/11/28 02:11:42;;;;;;;564.70;329.20;;;;;;;10.50;88.36;98448.78;4949724;28;20059;-76
2021/11/28 02:14:26;;;;;;;588.72;342.27;;;;;;;10.49;89.42;98441.78;4958034;28;20043;-76
2021/11/28 02:17:12;;;;;;;476.95;277.00;;;;;;;10.52;90.46;98437.53;4945947;28;20051;-78
2021/11/28 02:19:57;;;;;;;615.00;360.30;;;;;;;10.54;91.20;98432.53;4938133;29;20040;-76
2021/11/28 02:22:42;;;;;;;625.00;372.63;;;;;;;10.56;91.68;98422.06;4940660;29;20422;-77
2021/11/28 02:25:27;;;;;;;493.67;285.73;;;;;;;10.56;92.08;98435.66;4938595;29;20052;-75
2021/11/28 02:28:13;;;;;;;628.40;368.30;;;;;;;10.54;92.23;98435.25;4941919;29;20039;-75
2021/11/28 02:30:58;;;;;;;482.30;289.10;;;;;;;10.57;92.33;98434.47;4953417;28;20036;-76
2021/11/28 02:33:43;;;;;;;632.70;371.95;;;;;;;10.56;92.80;98441.88;4942624;29;20043;-76
2021/11/28 02:36:28;;;;;;;477.80;284.88;;;;;;;10.54;92.54;98459.69;4959332;28;20051;-76
2021/11/28 02:39:14;;;;;;;612.35;359.20;;;;;;;10.54;92.35;98454.25;4938890;29;20051;-76
2021/11/28 02:41:59;;;;;;;459.65;267.90;;;;;;;10.51;92.18;98455.00;4938210;29;20051;-75
2021/11/28 02:44:46;;;;;;;620.05;357.77;;;;;;;10.54;92.49;98446.91;4941787;29;20055;-76
2021/11/28 02:47:31;;;;;;;621.45;364.33;;;;;;;10.53;92.58;98428.22;4939187;29;20043;-77
2021/11/28 02:50:18;;;;;;;489.92;287.45;;;;;;;10.56;92.78;98422.88;4936252;29;20055;-79
2021/11/28 02:53:07;;;;;;;630.55;367.95;;;;;;;10.55;92.83;98423.22;4948496;29;20047;-78
2021/11/28 02:55:56;;;;;;;615.05;356.23;;;;;;;10.54;92.67;98425.16;4955982;28;20043;-78
2021/11/28 02:58:41;;;;;;;598.20;349.33;;;;;;;10.52;92.81;98426.66;4937844;29;20411;-77
2021/11/28 03:01:26;;;;;;;465.55;268.75;;;;;;;10.51;92.59;98411.53;4957389;28;20466;-77
2021/11/28 03:04:29;;;;;;;158.35;89.07;;;;;;;10.49;92.55;98405.69;4938205;29;20499;-77
2021/11/28 03:07:18;;;;;;;;;;;;;;;10.44;91.12;98409.50;4948787;29;20043;-78
2021/11/28 03:10:03;;;;;;;255.88;110.38;;;;;;;10.39;89.85;98393.53;4953572;28;20409;-78
2021/11/28 03:12:47;;;;;;;;;;;;;;;10.37;87.85;98403.97;4946369;28;20043;-77
2021/11/28 03:15:32;;;;;;;183.27;82.20;;;;;;;10.36;86.88;98409.81;4944424;28;20385;-78
2021/11/28 03:18:22;;;;;;;191.88;90.60;;;;;;;10.37;86.26;98400.47;4940499;29;20035;-79
2021/11/28 03:21:11;;;;;;;340.20;170.55;;;;;;;10.39;87.60;98414.50;4957639;28;20027;-81
2021/11/28 03:24:03;;;;;;;185.98;99.22;;;;;;;10.35;86.77;98403.59;4956087;28;20047;-78
2021/11/28 03:26:48;;;;;;;147.25;74.72;;;;;;;10.32;85.49;98401.59;4960797;28;20043;-78
2021/11/28 03:29:33;;;;;;;466.30;252.70;;;;;;;10.38;87.23;98407.47;4957281;28;20047;-74
2021/11/28 03:32:26;;;;;;;426.08;233.23;;;;;;;10.36;88.48;98415.25;4955570;28;20047;-77
2021/11/28 03:35:37;;;;;;;447.38;235.52;;;;;;;10.36;89.31;98417.97;4960493;28;20058;-78
2021/11/28 03:38:24;;;;;;;458.17;256.85;;;;;;;10.37;89.68;98419.50;4957740;28;20039;-77
2021/11/28 03:41:10;;;;;;;321.55;161.13;;;;;;;10.36;89.61;98420.66;4955955;28;20059;-77
2021/11/28 03:43:57;;;;;;;306.75;156.13;;;;;;;10.32;88.18;98430.69;4955999;28;20032;-79
2021/11/28 03:46:42;;;;;;;92.35;55.00;;;;;;;10.27;86.97;98431.78;4949184;29;20043;-79
2021/11/28 03:49:27;;;;;;;;;;;;;;;10.29;86.00;98424.06;4955644;28;20076;-77
2021/11/28 03:52:12;;;;;;;406.88;206.85;;;;;;;10.31;87.85;98427.19;4960911;28;20301;-77
2021/11/28 03:54:58;;;;;;;157.48;75.95;;;;;;;10.26;87.57;98439.16;4957971;28;20060;-75
2021/11/28 03:57:45;;;;;;;120.00;58.03;;;;;;;10.25;85.69;98415.88;4955958;28;20039;-75
2021/11/28 04:00:30;;;;;;;60.10;27.42;;;;;;;10.23;84.46;98415.47;4953853;28;20047;-75
2021/11/28 04:03:23;;;;;;;49.80;23.20;;;;;;;10.22;83.29;98413.88;4955298;28;20047;-76
2021/11/28 04:06:09;;;;;;;62.28;34.15;;;;;;;10.18;82.76;98404.94;4953119;28;20070;-77
2021/11/28 04:08:54;;;;;;;76.05;38.50;;;;;;;10.17;82.76;98411.50;4958099;28;20050;-76
2021/11/28 04:11:39;;;;;;;54.25;31.15;;;;;;;10.16;82.25;98407.22;4946713;29;20055;-76
2021/11/28 04:14:23;;;;;;;54.60;31.88;;;;;;;10.17;81.70;98405.28;4934529;29;20507;-77
2021/11/28 04:17:09;;;;;;;;;;;;;;;10.18;81.93;98406.84;4955850;28;20047;-78
2021/11/28 04:19:58;;;;;;;202.50;99.00;;;;;;;10.15;82.30;98400.22;4952329;28;19914;-76
2021/11/28 04:22:43;;;;;;;285.77;138.65;;;;;;;10.16;83.29;98401.00;4937884;28;20320;-75
2021/11/28 04:25:28;;;;;;;198.15;97.18;;;;;;;10.13;83.53;98399.00;4941197;29;20043;-75
2021/11/28 04:28:13;;;;;;;55.55;33.50;;;;;;;10.11;83.40;98396.66;4937134;28;20043;-76
2021/11/28 04:30:58;;;;;;;64.90;36.28;;;;;;;10.07;82.03;98393.09;4935405;29;20056;-75
2021/11/28 04:33:43;;;;;;;96.07;48.63;;;;;;;10.04;81.13;98385.72;4952785;28;20047;-76
2021/11/28 04:36:29;;;;;;;223.13;108.78;;;;;;;10.07;81.86;98381.47;4956482;28;20058;-77
2021/11/28 04:39:14;;;;;;;155.20;79.13;;;;;;;10.05;82.67;98381.84;4953768;28;20043;-75
2021/11/28 04:41:59;;;;;;;82.38;50.05;;;;;;;10.05;82.87;98373.69;4958091;28;20047;-77
2021/11/28 04:44:44;;;;;;;77.80;36.90;;;;;;;10.00;81.43;98382.16;4956764;28;20043;-75
2021/11/28 04:47:29;;;;;;;;;;;;;;;10.04;82.29;98388.44;4954851;29;20043;-78
2021/11/28 04:50:21;;;;;;;41.05;24.63;;;;;;;9.97;81.10;98377.47;4958119;28;19914;-78
2021/11/28 04:53:06;;;;;;;35.25;20.15;;;;;;;9.95;79.37;98387.13;4969809;28;20058;-80
2021/11/28 04:55:50;;;;;;;26.25;14.23;;;;;;;9.91;78.52;98387.06;4954156;29;20127;-76
2021/11/28 04:58:37;;;;;;;206.70;102.40;;;;;;;9.96;80.68;98383.25;4958543;29;20046;-79
2021/11/28 05:01:24;;;;;;;146.13;72.07;;;;;;;10.00;84.05;98374.03;4955947;28;20518;-77
2021/11/28 05:04:16;;;;;;;291.13;144.20;;;;;;;10.01;86.97;98382.94;4950909;28;20524;-78
2021/11/28 05:07:04;;;;;;;287.05;145.13;;;;;;;10.02;87.87;98396.16;4953493;28;20039;-78
2021/11/28 05:09:54;;;;;;;293.35;146.88;;;;;;;10.01;88.87;98397.28;4948227;28;20035;-77
2021/11/28 05:12:40;;;;;;;301.55;147.85;;;;;;;10.04;90.32;98395.78;4959570;28;20059;-77
2021/11/28 05:15:26;;;;;;;293.55;147.10;;;;;;;10.00;90.57;98395.75;4960918;28;20047;-76
2021/11/28 05:18:34;;;;;;;273.27;143.13;;;;;;;10.03;91.64;98395.00;4957756;28;20518;-76
2021/11/28 05:21:38;;;;;;;227.82;119.07;;;;;;;9.97;90.84;98393.75;4955274;28;20043;-77
2021/11/28 05:24:23;;;;;;;196.20;96.25;;;;;;;9.95;90.09;98382.50;4939871;29;20047;-76
2021/11/28 05:27:11;;;;;;;259.23;132.55;;;;;;;9.99;91.16;98382.53;4938088;29;20047;-77
2021/11/28 05:29:56;;;;;;;251.77;133.85;;;;;;;10.01;91.97;98383.72;4978668;23;20463;-60
2021/11/28 05:32:42;;;;;;;257.77;136.88;;;;;;;9.99;92.25;98383.31;4975422;28;20050;-60
2021/11/28 05:36:05;;;;;;;258.33;129.02;;;;;;;9.99;92.25;98383.31;4983507;28;20588;-60
2021/11/28 05:39:11;;;;;;;239.88;126.20;;;;;;;10.00;92.85;98379.47;4946442;28;20039;-60
2021/11/28 05:41:58;;;;;;;250.10;122.90;;;;;;;10.02;93.26;98392.66;4943737;29;20496;-60
2021/11/28 05:44:44;;;;;;;228.20;118.88;;;;;;;10.00;93.52;98392.25;4947213;28;20043;-61
2021/11/28 05:47:49;;;;;;;81.35;45.05;;;;;;;9.93;92.31;98384.00;4952790;28;20054;-60
2021/11/28 05:50:56;;;;;;;34.92;21.50;;;;;;;9.82;89.37;98406.34;4953248;28;20058;-60
2021/11/28 05:53:43;;;;;;;39.63;21.33;;;;;;;9.78;86.56;98404.72;4964384;28;20057;-60
2021/11/28 05:56:30;;;;;;;29.60;18.42;;;;;;;9.74;85.07;98401.19;4923739;29;20054;-63
2021/11/28 05:59:15;;;;;;;32.58;18.90;;;;;;;9.69;82.79;98401.50;4928148;29;20047;-60
2021/11/28 06:02:00;;;;;;;18.45;11.15;;;;;;;9.66;80.44;98396.78;4939411;29;20055;-59
2021/11/28 06:04:46;;;;;;;23.77;14.63;;;;;;;9.51;76.91;98400.44;4961030;28;20109;-62
2021/11/28 06:07:53;;;;;;;43.38;21.75;;;;;;;9.53;77.99;98398.16;4953361;28;20050;-57
2021/11/28 06:10:39;;;;;;;80.93;41.47;;;;;;;9.57;78.76;98396.28;4949387;28;20047;-58
2021/11/28 06:13:24;;;;;;;43.58;12.43;;;;;;;9.61;82.51;98405.25;4957495;28;20042;-59
2021/11/28 06:16:32;;;;;;;36.58;17.52;;;;;;;9.56;80.42;98405.56;4951485;28;20131;-60
2021/11/28 06:19:46;;;;;;;14.23;9.27;;;;;;;9.53;79.45;98409.00;4897249;29;20050;-60
2021/11/28 06:23:08;;;;;;;19.33;8.82;;;;;;;9.51;79.18;98405.88;4943416;29;20051;-60
2021/11/28 06:25:53;;;;;;;21.45;10.38;;;;;;;9.49;79.17;98402.75;4942006;29;20512;-58
2021/11/28 06:28:38;;;;;;;9.77;7.13;;;;;;;9.43;77.94;98410.41;4945409;29;20042;-61
2021/11/28 06:31:23;;;;;;;8.98;4.75;;;;;;;9.38;76.73;98416.16;4942650;29;20054;-58
2021/11/28 06:34:30;;;;;;;9.63;5.82;;;;;;;9.31;76.13;98418.72;4960563;28;20054;-60
2021/11/28 06:37:33;;;;;;;8.93;4.45;;;;;;;9.29;75.35;98427.25;4956011;29;20058;-58
2021/11/28 06:40:36;;;;;;;12.48;5.88;;;;;;;9.30;76.00;98422.59;4954709;29;20050;-58
2021/11/28 06:43:24;;;;;;;7.63;4.50;;;;;;;9.29;75.59;98421.84;4945294;29;20516;-57
2021/11/28 06:46:09;;;;;;;8.45;3.95;;;;;;;9.22;73.34;98429.84;4923991;29;20413;-58
2021/11/28 06:48:55;;;;;;;3.70;2.55;;;;;;;9.14;70.83;98436.28;4922183;29;20047;-58
2021/11/28 06:51:55;;;;;;;5.05;3.25;;;;;;;9.01;71.65;98432.16;4958227;28;20054;-57
2021/11/28 06:54:59;;;;;;;5.88;3.05;;;;;;;8.87;70.42;98435.41;4937157;29;20047;-58
2021/11/28 06:57:44;;;;;;;3.22;2.67;;;;;;;8.79;69.20;98439.13;4937391;29;20516;-58
2021/11/28 07:00:29;;;;;;;3.50;2.70;;;;;;;8.82;71.09;98443.06;4924068;29;20050;-60
2021/11/28 07:03:15;;;;;;;5.88;3.67;;;;;;;8.83;70.54;98448.13;4923512;29;20070;-58
2021/11/28 07:06:09;;;;;;;7.28;3.65;;;;;;;8.87;71.89;98448.19;4944630;28;20050;-57
2021/11/28 07:09:00;;;;;;;7.63;3.95;;;;;;;8.88;72.21;98452.47;4942174;29;20050;-58
2021/11/28 07:11:45;;;;;;;5.10;3.72;;;;;;;8.93;75.09;98449.47;4941289;29;20054;-57
2021/11/28 07:14:30;;;;;;;11.50;5.30;;;;;;;8.97;76.26;98453.81;4954817;29;20408;-58
2021/11/28 07:17:15;;;;;;;6.82;4.22;;;;;;;8.96;75.81;98452.22;4942829;29;20155;-58
2021/11/28 07:20:03;;;;;;;12.55;5.97;;;;;;;9.00;75.03;98457.72;4940928;29;20617;-59
2021/11/28 07:23:08;;;;;;;9.20;5.13;;;;;;;8.99;75.10;98465.06;4943793;29;20430;-58
2021/11/28 07:25:53;;;;;;;7.45;4.05;;;;;;;8.96;75.20;98463.06;4941988;29;20054;-57
2021/11/28 07:28:48;;;;;;;7.60;3.72;;;;;;;8.96;75.10;98467.72;4945110;28;20046;-58
2021/11/28 07:31:36;;;;;;;7.35;4.22;;;;;;;8.94;74.82;98469.97;4939633;29;20062;-58
2021/11/28 07:34:26;;;;;;;8.93;5.22;;;;;;;8.89;75.10;98484.59;4956082;28;20046;-57
2021/11/28 07:37:36;;;;;;;11.00;5.80;;;;;;;8.92;75.18;98489.34;4941713;29;20054;-58
2021/11/28 07:40:21;;;;;;;24.63;6.88;;;;;;;8.93;75.63;98495.53;4942109;29;20047;-58
2021/11/28 07:43:20;;;;;;;10.75;6.63;;;;;;;8.91;76.80;98497.81;4945258;28;20051;-58
2021/11/28 07:46:24;;;;;;;19.50;6.43;;;;;;;8.93;77.87;98503.66;4954798;29;20050;-58
2021/11/28 07:49:32;;;;;;;17.23;6.40;;;;;;;8.94;77.83;98507.94;4954010;29;20065;-61
2021/11/28 07:52:21;;;;;;;27.83;7.15;;;;;;;8.94;78.62;98518.75;4933760;29;20055;-58
2021/11/28 07:55:07;;;;;;;20.20;5.55;;;;;;;8.94;78.87;98513.34;4922845;29;20066;-59
2021/11/28 07:58:13;;;;;;;18.40;5.13;;;;;;;8.92;76.32;98521.06;4922003;29;20042;-60
2021/11/28 08:01:04;;;;;;;11.30;5.88;;;;;;;8.82;76.44;98516.22;4941894;29;20054;-59
2021/11/28 08:03:53;;;;;;;9.27;6.25;;;;;;;8.86;79.14;98504.31;4940383;29;20055;-58
2021/11/28 08:06:56;;;;;;;22.17;7.53;;;;;;;8.87;78.14;98505.88;4952931;29;20070;-57
2021/11/28 08:10:08;;;;;;;11.35;6.25;;;;;;;8.86;77.64;98503.53;4940119;29;20038;-60
2021/11/28 08:12:52;;;;;;;8.68;6.18;;;;;;;8.90;78.81;98496.25;4958350;28;20075;-57
2021/11/28 08:15:37;;;;;;;5.97;4.25;;;;;;;8.88;78.43;98493.91;4955919;28;20050;-58
2021/11/28 08:18:22;;;;;;;7.90;5.40;;;;;;;8.88;78.16;98491.19;4954827;28;20054;-57
2021/11/28 08:21:08;;;;;;;7.45;5.18;;;;;;;8.94;79.30;98500.56;4957791;28;20054;-58
2021/11/28 08:23:54;;;;;;;13.45;7.05;;;;;;;8.95;78.53;98502.16;4956127;28;20420;-58
2021/11/28 08:26:39;;;;;;;8.65;6.30;;;;;;;8.95;78.61;98510.28;4954926;28;20416;-62
2021/11/28 08:29:24;;;;;;;10.52;4.53;;;;;;;8.95;75.92;98523.84;4962225;28;20050;-57
2021/11/28 08:32:10;;;;;;;10.27;6.03;;;;;;;8.93;75.56;98531.56;4941356;28;20042;-59
2021/11/28 08:35:24;;;;;;;9.15;6.07;;;;;;;8.88;75.45;98525.63;4950886;28;20078;-58
2021/11/28 08:38:10;;;;;;;6.15;4.75;;;;;;;8.90;74.95;98521.41;4958446;28;20555;-58
2021/11/28 08:40:55;;;;;;;7.55;5.88;;;;;;;8.86;75.21;98534.13;4963994;28;20539;-58
2021/11/28 08:43:42;;;;;;;7.10;5.07;;;;;;;8.82;75.70;98540.59;4967517;28;20058;-58
2021/11/28 08:46:27;;;;;;;9.32;5.97;;;;;;;8.75;75.89;98521.50;4968577;28;20053;-61
2021/11/28 08:49:12;;;;;;;12.93;7.15;;;;;;;8.82;77.71;98532.47;4962330;28;20051;-63
2021/11/28 08:51:58;;;;;;;39.47;20.50;;;;;;;8.80;77.71;98534.75;4958394;28;20453;-61
2021/11/28 08:54:43;;;;;;;43.25;24.85;;;;;;;8.81;77.05;98534.41;4953703;28;20046;-61
2021/11/28 08:57:28;;;;;;;23.25;14.00;;;;;;;8.85;77.94;98539.88;4953043;28;20523;-60
2021/11/28 09:00:14;;;;;;;16.05;9.65;;;;;;;8.87;78.54;98537.63;4950931;28;20392;-58
2021/11/28 09:02:59;;;;;;;24.38;13.63;;;;;;;8.92;79.67;98548.16;4957891;28;20046;-59
2021/11/28 09:05:44;;;;;;;14.27;6.82;;;;;;;8.96;79.80;98546.31;4949238;28;20055;-61
2021/11/28 09:08:29;;;;;;;12.93;5.88;;;;;;;8.94;78.08;98535.81;4944894;29;20046;-59
2021/11/28 09:11:15;;;;;;;14.27;5.80;;;;;;;8.99;79.17;98548.28;4953394;29;20408;-60
2021/11/28 09:13:59;;;;;;;22.65;9.13;;;;;;;9.01;80.08;98535.97;4951261;28;20061;-62
2021/11/28 09:16:44;;;;;;;;;;;;;;;9.05;80.67;98538.72;4954475;28;20046;-59
2021/11/28 09:22:33;;;;;;;94.80;25.67;;;;;;;9.11;82.55;98544.66;4947414;28;20127;-61
2021/11/28 09:25:18;;;;;;;70.82;20.67;;;;;;;9.14;83.64;98533.13;4944951;29;20420;-59
2021/11/28 09:28:06;;;;;;;25.30;12.63;;;;;;;9.14;83.95;98533.13;4945913;28;20070;-59
2021/11/28 09:30:50;;;;;;;26.38;12.15;;;;;;;9.14;82.83;98533.13;4972245;28;20395;-61
2021/11/28 09:33:39;;;;;;;15.32;8.00;;;;;;;9.17;80.76;98537.81;4972745;28;20069;-59
2021/11/28 09:36:26;;;;;;;25.70;10.65;;;;;;;9.12;79.89;98529.97;4938847;29;20405;-59
2021/11/28 09:39:10;;;;;;;26.05;12.88;;;;;;;9.16;80.73;98526.16;4944195;29;20047;-62
2021/11/28 09:42:03;;;;;;;21.45;9.43;;;;;;;9.20;81.20;98509.97;4955279;29;20401;-59
2021/11/28 09:44:48;;;;;;;37.40;13.90;;;;;;;9.20;81.22;98520.81;4963849;28;20049;-59
2021/11/28 09:47:35;;;;;;;73.57;21.85;;;;;;;9.22;81.31;98516.59;4955044;28;20420;-59
2021/11/28 09:50:21;;;;;;;27.85;12.65;;;;;;;9.22;80.61;98513.91;4951660;29;20042;-59
2021/11/28 09:53:07;;;;;;;96.20;23.52;;;;;;;9.25;80.50;98507.75;4959573;28;20288;-59
2021/11/28 09:55:55;;;;;;;72.32;21.52;;;;;;;9.28;82.28;98507.03;4959596;28;20120;-59
2021/11/28 09:58:41;;;;;;;25.67;13.88;;;;;;;9.30;82.59;98499.31;4958220;28;20417;-59
2021/11/28 10:01:26;;;;;;;35.85;13.02;;;;;;;9.29;82.24;98497.75;4959288;28;20543;-60
2021/11/28 10:04:11;;;;;;;22.63;11.93;;;;;;;9.21;80.79;98496.06;4953700;28;20049;-60
2021/11/28 10:06:56;;;;;;;18.67;9.13;;;;;;;9.23;79.07;98487.56;4967523;28;20069;-58
2021/11/28 10:09:42;;;;;;;15.07;9.10;;;;;;;9.22;79.31;98489.50;4971923;28;20050;-60
2021/11/28 10:12:29;;;;;;;20.00;10.00;;;;;;;9.26;79.38;98486.84;4950308;28;20062;-59
2021/11/28 10:15:20;;;;;;;15.35;8.90;;;;;;;9.07;79.07;98498.50;4946012;28;20050;-59
2021/11/28 10:18:09;;;;;;;18.55;8.75;;;;;;;8.93;82.23;98533.47;4949830;28;20046;-59
2021/11/28 10:20:55;;;;;;;24.85;10.27;;;;;;;8.93;83.36;98545.13;4951240;28;20401;-60
2021/11/28 10:24:11;;;;;;;23.05;11.20;;;;;;;8.96;82.90;98522.69;4952186;28;20043;-59
2021/11/28 10:27:06;;;;;;;17.50;9.23;;;;;;;9.05;82.17;98514.34;4949256;28;20509;-62
2021/11/28 10:29:54;;;;;;;;;;;;;;;9.19;81.40;98501.06;4957632;28;20046;-59
2021/11/28 10:32:44;;;;;;;16.63;8.50;;;;;;;9.28;80.74;98496.19;4961277;28;20287;-59
2021/11/28 10:35:28;;;;;;;16.10;8.55;;;;;;;9.29;78.82;98496.97;4958864;28;20054;-59
2021/11/28 10:38:13;;;;;;;16.38;6.80;;;;;;;9.29;79.44;98491.56;4957438;28;20058;-58
2021/11/28 10:40:58;;;;;;;14.30;6.15;;;;;;;9.31;79.33;98498.16;4961103;28;20043;-59
2021/11/28 10:43:43;;;;;;;10.80;5.95;;;;;;;9.34;79.02;98496.69;4959425;28;20059;-59
2021/11/28 10:46:31;;;;;;;16.70;8.73;;;;;;;9.34;78.80;98486.63;4953889;28;20089;-61
2021/11/28 10:49:19;;;;;;;51.05;17.15;;;;;;;9.38;80.97;98482.03;4959583;28;20050;-59
2021/11/28 10:52:13;;;;;;;32.53;13.90;;;;;;;9.43;81.25;98478.22;4968421;28;20601;-59
2021/11/28 10:55:09;;;;;;;58.88;19.50;;;;;;;9.42;81.54;98482.88;4961593;28;20058;-62
2021/11/28 10:58:10;;;;;;;80.18;24.25;;;;;;;9.51;82.41;98476.41;4972346;28;20070;-59
2021/11/28 11:01:15;;;;;;;69.88;23.52;;;;;;;9.53;83.54;98474.13;4976793;28;20409;-60
2021/11/28 11:04:17;;;;;;;79.68;24.42;;;;;;;9.58;84.34;98482.75;4975401;28;20054;-59
2021/11/28 11:07:11;;;;;;;54.50;19.52;;;;;;;9.59;83.75;98481.59;4977076;28;20054;-60
2021/11/28 11:09:56;;;;;;;86.82;25.05;;;;;;;9.59;84.04;98481.59;4974601;28;20527;-59
2021/11/28 11:12:44;;;;;;;23.05;10.95;;;;;;;9.64;84.07;98489.44;4958857;28;20054;-62
2021/11/28 11:15:34;;;;;;;37.17;16.40;;;;;;;9.65;83.57;98488.25;4951189;28;20531;-59
2021/11/28 11:18:21;;;;;;;66.80;23.05;;;;;;;9.67;83.56;98487.91;4947365;28;20134;-61
2021/11/28 11:21:06;;;;;;;41.45;15.13;;;;;;;9.68;83.82;98487.56;4973266;28;20050;-59
2021/11/28 11:23:51;;;;;;;;;;;;;;;9.75;84.57;98478.75;4961327;28;20050;-59
2021/11/28 11:26:37;;;;;;;75.60;25.48;;;;;;;9.77;84.90;98488.09;4951991;28;19914;-59
2021/11/28 11:29:30;;;;;;;68.25;22.63;;;;;;;9.82;84.79;98482.34;4962434;28;20058;-60
2021/11/28 11:32:22;;;;;;;88.10;30.95;;;;;;;9.90;85.80;98482.47;4956754;28;20045;-59
2021/11/28 11:35:09;;;;;;;95.75;32.28;;;;;;;9.93;86.42;98479.00;4971407;28;20508;-60
2021/11/28 11:38:03;;;;;;;59.28;23.02;;;;;;;9.95;86.80;98480.22;4946947;28;20046;-59
2021/11/28 11:40:49;;;;;;;35.75;14.65;;;;;;;9.93;85.95;98479.78;4961406;28;20066;-59
2021/11/28 11:43:37;;;;;;;14.25;8.50;;;;;;;9.88;83.24;98474.69;4966734;28;20053;-59
2021/11/28 11:46:22;;;;;;;14.35;8.35;;;;;;;9.86;81.25;98468.81;4954669;28;20058;-59
2021/11/28 11:49:08;;;;;;;12.13;7.45;;;;;;;9.91;81.21;98471.22;4971238;28;20447;-59
2021/11/28 11:51:53;;;;;;;23.05;11.38;;;;;;;9.88;79.88;98470.03;4990511;23;20069;-58
2021/11/28 11:55:00;;;;;;;35.25;13.60;;;;;;;9.94;80.60;98470.50;4986606;28;20050;-57
2021/11/28 11:58:00;;;;;;;15.63;10.30;;;;;;;9.99;82.30;98472.91;4989910;28;20049;-58
2021/11/28 12:00:56;;;;;;;32.75;12.70;;;;;;;10.03;82.49;98471.03;4991490;28;20057;-57
2021/11/28 12:03:51;;;;;;;39.85;14.75;;;;;;;10.05;82.19;98467.94;4987665;28;20057;-57
2021/11/28 12:06:41;;;;;;;27.83;13.85;;;;;;;10.10;83.56;98459.50;4990932;28;20408;-57
2021/11/28 12:09:29;;;;;;;44.00;18.05;;;;;;;10.13;84.67;98461.47;4987273;28;20050;-57
2021/11/28 12:12:14;;;;;;;27.92;13.38;;;;;;;10.11;83.77;98464.53;4997848;28;20491;-57
2021/11/28 12:15:20;;;;;;;64.85;23.10;;;;;;;10.19;84.75;98458.09;4991751;28;20050;-57
2021/11/28 12:18:06;;;;;;;86.75;33.47;;;;;;;10.23;85.60;98458.13;4990909;28;20042;-58
2021/11/28 12:20:51;;;;;;;106.22;34.22;;;;;;;10.24;85.97;98446.13;4996687;28;20475;-57
2021/11/28 12:24:11;;;;;;;33.55;14.25;;;;;;;10.27;85.61;98438.00;4988703;28;20042;-57
2021/11/28 12:27:02;;;;;;;105.97;37.38;;;;;;;10.32;86.20;98438.84;4984792;28;20417;-57
2021/11/28 12:29:47;;;;;;;124.05;40.35;;;;;;;10.35;87.00;98443.53;4991299;28;20496;-58
2021/11/28 12:32:33;;;;;;;261.58;125.82;;;;;;;10.35;86.94;98443.53;4989705;28;20046;-57
2021/11/28 12:35:37;;;;;;;123.28;44.95;;;;;;;10.42;87.09;98433.53;4996511;28;20043;-57
2021/11/28 12:38:48;;;;;;;47.45;19.58;;;;;;;10.38;86.00;98432.72;5000300;28;20050;-57
2021/11/28 12:41:45;;;;;;;43.35;15.27;;;;;;;10.37;85.40;98438.50;5001737;28;20034;-58
2021/11/28 12:44:36;;;;;;;42.30;19.05;;;;;;;10.38;85.80;98440.09;4990714;28;20419;-58
2021/11/28 12:47:23;;;;;;;108.00;37.15;;;;;;;10.42;85.67;98443.63;4980483;28;20408;-57
2021/11/28 12:50:19;;;;;;;117.72;43.90;;;;;;;10.45;86.64;98432.03;5000543;28;20042;-58
2021/11/28 12:53:04;;;;;;;42.53;16.23;;;;;;;10.40;86.11;98440.50;4988608;28;20038;-58
2021/11/28 12:56:12;;;;;;;19.65;10.35;;;;;;;10.38;84.20;98449.03;4988675;28;20057;-57
2021/11/28 12:59:13;;;;;;;18.13;9.32;;;;;;;10.35;80.49;98457.91;4993108;28;20053;-57
2021/11/28 13:02:00;;;;;;;15.20;8.07;;;;;;;10.32;77.93;98466.78;4996148;28;20502;-57
2021/11/28 13:04:46;;;;;;;11.32;7.57;;;;;;;10.31;76.90;98475.31;4996655;28;20061;-58
2021/11/28 13:07:36;;;;;;;84.25;27.35;;;;;;;10.36;78.48;98473.06;4988981;28;20061;-57
2021/11/28 13:10:27;;;;;;;99.63;33.15;;;;;;;10.41;81.48;98475.47;4992391;28;20034;-57
2021/11/28 13:13:33;;;;;;;29.30;13.05;;;;;;;10.40;82.32;98457.59;5001158;28;20426;-58